York, ME

2:09 AM EST on February 07, 2016 (GMT -0500)
York Village | | Change Station
CLOSE
Current Station
Personal Weather Station
Location: York, ME
Elevation: 56 ft
Nearby Weather Stations

Elev 56 ft 43.14 °N, 70.65 °W | Updated 4 seconds ago

Mostly Cloudy
Mostly Cloudy
29.2 °F
Feels Like 29 °F
N
2.0
Wind Variable Wind from West
Gusts 4.0 mph

Today
High -- | Low -- °F
--% Chance of Precip.
Yesterday
High -- | Low -- °F
Precip. -- in
Pressure 30.16 in
Visibility 10.0 miles
Clouds Few 20000 ft
Scattered Clouds 25000 ft
Windchill 29 °F
Dew Point 25 °F
Humidity 84%
Rainfall 0.00 in
Snow Depth Not available.
6:51 AM 5:02 PM
Waning Crescent, 2% visible
METAR KPSM 070658Z 22009KT 10SM FEW200 SCT250 M02/M06 A3014 RMK AO2A SLP211 T10221059
Pressure 30.16 in
Visibility 10.0 miles
Clouds Few 20000 ft
Scattered Clouds 25000 ft
Windchill 29 °F
Dew Point 25 °F
Humidity 84%
Rainfall 0.00 in
Snow Depth Not available.
6:51 AM 5:02 PM
Waning Crescent, 2% visible
METAR KPSM 070658Z 22009KT 10SM FEW200 SCT250 M02/M06 A3014 RMK AO2A SLP211 T10221059

10-Day Weather Forecast

Almanac

Astronomy

Feb. 07, 2016 Rise Set
Actual Time
Civil Twilight
Nautical Twilight
Astronomical Twilight
Moon
Length of Visible Light
Length of Day
Tomorrow will be .
, % of the Moon is Illuminated

Today's Extremes

State Highs State Lows

Community

WunderPhotos

Upload Photos

1,891,174 photos uploaded!

WunderBlog® & News

Nearby

Air Quality

  Air Quality AQ Index Pollutant
Not available.

Snow Depth

Station Depth Elevation

Earthquake Activity

City Distance Mag. Time & Date
Minimum magnitude displayed is 2.5.

Coastal Water Temperatures

Place Temperature

Stations

Nearby Weather Stations

Station Location Temp. Windchill Dew Point Humidity Wind Precip. Elev Updated Type
                   

Watches & Warnings

There are currently no watches in effect.